createdAt,value
2022-10-22T00:01:36.644Z,10.81
2022-10-22T00:04:06.236Z,10.81
2022-10-22T00:06:35.963Z,10.80
2022-10-22T00:09:05.482Z,10.87
2022-10-22T00:11:36.561Z,10.94
2022-10-22T00:14:06.024Z,10.99
2022-10-22T00:16:35.572Z,10.92
2022-10-22T00:19:05.182Z,10.97
2022-10-22T00:21:34.763Z,10.88
2022-10-22T00:24:07.342Z,10.87
2022-10-22T00:26:41.556Z,11.00
2022-10-22T00:29:10.791Z,10.89
2022-10-22T00:31:40.341Z,10.88
2022-10-22T00:34:09.655Z,10.88
2022-10-22T00:36:39.069Z,10.95
2022-10-22T00:39:08.258Z,10.99
2022-10-22T00:41:37.771Z,11.02
2022-10-22T00:44:08.715Z,11.00
2022-10-22T00:46:38.223Z,10.96
2022-10-22T00:49:07.489Z,11.04
2022-10-22T00:51:38.025Z,11.09
2022-10-22T00:54:10.100Z,11.03
2022-10-22T00:56:39.902Z,11.01
2022-10-22T00:59:13.099Z,10.81
2022-10-22T01:01:42.520Z,10.73
2022-10-22T01:04:12.003Z,10.84
2022-10-22T01:06:41.433Z,10.82
2022-10-22T01:09:19.782Z,10.87
2022-10-22T01:12:02.515Z,10.80
2022-10-22T01:14:39.719Z,10.78
2022-10-22T01:17:15.051Z,10.71
2022-10-22T01:19:59.603Z,10.72
2022-10-22T01:22:34.400Z,10.87
2022-10-22T01:25:10.493Z,10.83
2022-10-22T01:27:57.353Z,10.86
2022-10-22T01:30:28.624Z,10.91
2022-10-22T01:33:01.925Z,10.79
2022-10-22T01:35:37.248Z,10.84
2022-10-22T01:38:14.199Z,10.91
2022-10-22T01:40:44.707Z,10.87
2022-10-22T01:43:14.463Z,10.80
2022-10-22T01:45:48.487Z,10.85
2022-10-22T01:48:44.108Z,10.92
2022-10-22T01:51:28.594Z,10.97
2022-10-22T01:54:04.190Z,11.00
2022-10-22T01:56:47.084Z,11.18
2022-10-22T01:59:26.094Z,10.83
2022-10-22T02:02:05.110Z,10.97
2022-10-22T02:04:42.646Z,10.86
2022-10-22T02:07:15.296Z,10.93
2022-10-22T02:09:46.035Z,10.93
2022-10-22T02:12:17.690Z,10.94
2022-10-22T02:14:49.313Z,11.08
2022-10-22T02:17:23.560Z,11.06
2022-10-22T02:19:57.425Z,11.08
2022-10-22T02:22:27.612Z,11.05
2022-10-22T02:24:57.984Z,11.03
2022-10-22T02:27:32.327Z,11.04
2022-10-22T02:34:51.948Z,10.92
2022-10-22T02:37:22.687Z,10.76
2022-10-22T02:39:53.849Z,10.83
2022-10-22T02:42:24.356Z,10.94
2022-10-22T02:44:53.866Z,10.91
2022-10-22T02:47:23.267Z,10.90
2022-10-22T02:49:53.868Z,10.91
2022-10-22T02:52:23.423Z,10.93
2022-10-22T02:54:52.646Z,10.81
2022-10-22T02:57:22.648Z,10.93
2022-10-22T02:59:52.130Z,10.85
2022-10-22T03:02:21.574Z,10.81
2022-10-22T03:04:52.192Z,10.84
2022-10-22T03:07:21.668Z,10.83
2022-10-22T03:09:50.974Z,10.83
2022-10-22T03:12:20.614Z,10.87
2022-10-22T03:14:49.832Z,10.71
2022-10-22T03:17:19.263Z,10.78
2022-10-22T03:19:48.554Z,10.76
2022-10-22T03:22:24.771Z,10.80
2022-10-22T03:24:59.646Z,10.90
2022-10-22T03:27:33.592Z,10.90
2022-10-22T03:30:03.896Z,10.85
2022-10-22T03:32:33.399Z,10.89
2022-10-22T03:35:02.739Z,10.86
2022-10-22T03:37:35.439Z,10.83
2022-10-22T03:40:05.984Z,10.89
2022-10-22T03:42:35.815Z,10.90
2022-10-22T03:45:05.492Z,10.92
2022-10-22T03:47:35.451Z,10.89
2022-10-22T03:50:04.915Z,10.87
2022-10-22T03:52:39.438Z,10.89
2022-10-22T03:55:10.172Z,10.92
2022-10-22T03:57:40.069Z,10.89
2022-10-22T04:00:11.752Z,10.89
2022-10-22T04:02:41.248Z,10.94
2022-10-22T04:05:11.019Z,10.96
2022-10-22T04:07:42.282Z,10.91
2022-10-22T04:10:11.958Z,10.82
2022-10-22T04:12:41.410Z,10.84
2022-10-22T04:15:11.606Z,10.89
2022-10-22T04:17:41.286Z,10.86
2022-10-22T04:20:12.525Z,10.68
2022-10-22T04:22:43.341Z,10.78
2022-10-22T04:25:12.939Z,10.69
2022-10-22T04:27:42.803Z,10.80
2022-10-22T04:30:13.315Z,10.66
2022-10-22T04:32:42.796Z,10.49
2022-10-22T04:35:12.054Z,10.51
2022-10-22T04:37:43.156Z,10.47
2022-10-22T04:40:13.820Z,10.60
2022-10-22T04:42:43.280Z,10.71
2022-10-22T04:45:13.265Z,10.60
2022-10-22T04:47:43.084Z,10.60
2022-10-22T04:50:12.493Z,10.63
2022-10-22T04:52:43.452Z,10.63
2022-10-22T04:55:12.885Z,10.70
2022-10-22T04:57:42.599Z,10.81
2022-10-22T05:00:13.215Z,10.81
2022-10-22T05:02:44.769Z,10.68
2022-10-22T05:05:14.023Z,10.71
2022-10-22T05:07:44.949Z,10.88
2022-10-22T05:10:14.305Z,10.65
2022-10-22T05:12:43.892Z,10.67
2022-10-22T05:15:13.474Z,10.80
2022-10-22T05:17:43.449Z,10.78
2022-10-22T05:20:13.378Z,10.66
2022-10-22T05:22:44.362Z,10.68
2022-10-22T05:25:13.757Z,10.68
2022-10-22T05:27:43.563Z,10.57
2022-10-22T05:30:13.773Z,10.57
2022-10-22T05:32:43.321Z,10.63
2022-10-22T05:35:12.486Z,10.48
2022-10-22T05:37:43.932Z,10.24
2022-10-22T05:40:26.406Z,10.31
2022-10-22T05:42:56.765Z,10.37
2022-10-22T05:45:25.962Z,10.21
2022-10-22T05:47:55.361Z,10.29
2022-10-22T05:50:24.704Z,10.36
2022-10-22T05:52:55.595Z,10.19
2022-10-22T05:55:25.182Z,10.21
2022-10-22T05:57:54.642Z,10.27
2022-10-22T06:00:24.043Z,10.46
2022-10-22T06:02:54.043Z,10.59
2022-10-22T06:05:23.268Z,10.71
2022-10-22T06:07:54.829Z,10.72
2022-10-22T06:10:24.941Z,10.83
2022-10-22T06:12:54.305Z,10.89
2022-10-22T06:15:23.611Z,10.93
2022-10-22T06:17:52.997Z,10.80
2022-10-22T06:20:22.361Z,10.58
2022-10-22T06:22:54.527Z,10.59
2022-10-22T06:25:24.267Z,10.85
2022-10-22T06:27:54.094Z,10.91
2022-10-22T06:30:23.295Z,11.01
2022-10-22T06:32:53.066Z,11.24
2022-10-22T06:35:22.379Z,11.25
2022-10-22T06:37:51.815Z,11.24
2022-10-22T06:40:22.738Z,11.26
2022-10-22T06:42:52.142Z,11.46
2022-10-22T06:45:21.341Z,11.25
2022-10-22T06:47:51.100Z,11.35
2022-10-22T06:50:20.687Z,11.43
2022-10-22T06:52:50.070Z,11.62
2022-10-22T06:55:19.468Z,11.57
2022-10-22T06:57:50.315Z,11.67
2022-10-22T07:00:20.254Z,11.49
2022-10-22T07:02:57.631Z,11.30
2022-10-22T07:05:28.764Z,11.15
2022-10-22T07:07:58.194Z,11.12
2022-10-22T07:10:29.966Z,11.30
2022-10-22T07:13:01.893Z,11.43
2022-10-22T07:15:31.183Z,11.57
2022-10-22T07:18:00.664Z,11.70
2022-10-22T07:20:29.890Z,11.53
2022-10-22T07:22:59.458Z,11.74
2022-10-22T07:25:28.795Z,11.78
2022-10-22T07:27:58.199Z,11.90
2022-10-22T07:30:29.017Z,11.97
2022-10-22T07:32:58.447Z,12.10
2022-10-22T07:35:27.716Z,12.18
2022-10-22T07:37:57.671Z,12.11
2022-10-22T07:40:27.038Z,12.13
2022-10-22T07:42:56.618Z,12.15
2022-10-22T07:45:27.378Z,12.25
2022-10-22T07:47:56.961Z,11.99
2022-10-22T07:50:26.272Z,12.29
2022-10-22T07:52:57.533Z,12.41
2022-10-22T07:55:28.206Z,12.35
2022-10-22T07:57:57.779Z,12.48
2022-10-22T08:00:28.492Z,12.58
2022-10-22T08:02:58.006Z,12.57
2022-10-22T08:05:27.363Z,12.60
2022-10-22T08:07:56.766Z,12.49
2022-10-22T08:10:25.901Z,12.53
2022-10-22T08:12:55.423Z,12.65
2022-10-22T08:15:25.653Z,12.34
2022-10-22T08:17:56.770Z,12.76
2022-10-22T08:20:26.058Z,12.84
2022-10-22T08:22:55.520Z,13.06
2022-10-22T08:25:24.908Z,13.24
2022-10-22T08:27:54.543Z,13.18
2022-10-22T08:30:23.786Z,13.17
2022-10-22T08:32:54.142Z,13.38
2022-10-22T08:35:25.161Z,13.33
2022-10-22T08:37:54.574Z,13.21
2022-10-22T08:40:29.861Z,13.12
2022-10-22T08:43:21.523Z,13.29
2022-10-22T08:45:59.883Z,13.19
2022-10-22T08:48:43.374Z,13.16
2022-10-22T08:51:19.244Z,13.19
2022-10-22T08:54:08.021Z,13.38
2022-10-22T08:56:39.454Z,13.54
2022-10-22T08:59:15.284Z,13.86
2022-10-22T09:01:46.930Z,14.12
2022-10-22T09:04:25.496Z,14.42
2022-10-22T09:06:59.608Z,14.15
2022-10-22T09:09:35.486Z,14.32
2022-10-22T09:12:06.126Z,14.61
2022-10-22T09:14:35.655Z,14.58
2022-10-22T09:17:17.602Z,14.68
2022-10-22T09:19:58.405Z,14.37
2022-10-22T09:22:36.144Z,14.17
2022-10-22T09:25:19.220Z,14.10
2022-10-22T09:27:49.250Z,14.08
2022-10-22T09:30:20.044Z,14.26
2022-10-22T09:32:52.301Z,14.44
2022-10-22T09:35:25.597Z,14.55
2022-10-22T09:37:57.958Z,14.26
2022-10-22T09:40:27.475Z,14.59
2022-10-22T09:42:56.822Z,14.58
2022-10-22T09:45:28.282Z,14.61
2022-10-22T09:48:12.215Z,14.63
2022-10-22T09:50:45.767Z,14.75
2022-10-22T09:53:20.767Z,14.76
2022-10-22T09:58:26.026Z,15.08
2022-10-22T10:00:58.281Z,15.19
2022-10-22T10:03:30.838Z,15.23
2022-10-22T10:06:05.037Z,15.15
2022-10-22T10:08:37.174Z,15.37
2022-10-22T10:11:12.015Z,15.36
2022-10-22T10:13:52.233Z,15.32
2022-10-22T10:16:36.033Z,15.36
2022-10-22T10:19:29.030Z,15.61
2022-10-22T10:22:07.362Z,15.75
2022-10-22T10:25:05.725Z,15.62
2022-10-22T10:27:39.518Z,15.75
2022-10-22T10:30:14.746Z,15.92
2022-10-22T10:33:06.804Z,15.85
2022-10-22T10:35:47.797Z,15.61
2022-10-22T10:38:34.071Z,16.02
2022-10-22T10:41:09.817Z,15.79
2022-10-22T10:43:52.007Z,15.44
2022-10-22T10:46:36.962Z,15.33
2022-10-22T10:49:12.193Z,15.30
2022-10-22T10:51:53.922Z,15.73
2022-10-22T10:54:52.350Z,16.19
2022-10-22T10:57:32.058Z,16.30
2022-10-22T11:00:07.451Z,16.17
2022-10-22T11:03:31.410Z,16.09
2022-10-22T11:06:04.305Z,15.92
2022-10-22T11:08:37.416Z,15.75
2022-10-22T11:11:12.308Z,16.07
2022-10-22T11:13:50.785Z,16.05
2022-10-22T11:16:25.207Z,16.07
2022-10-22T11:18:59.626Z,15.98
2022-10-22T11:21:34.266Z,15.97
2022-10-22T11:24:12.430Z,16.13
2022-10-22T11:26:50.092Z,16.10
2022-10-22T11:29:27.294Z,16.15
2022-10-22T11:31:59.701Z,15.94
2022-10-22T11:34:35.598Z,16.19
2022-10-22T11:37:07.557Z,15.88
2022-10-22T11:39:44.029Z,15.97
2022-10-22T11:42:20.900Z,15.94
2022-10-22T11:45:01.685Z,15.93
2022-10-22T11:47:34.585Z,15.97
2022-10-22T11:50:21.701Z,15.95
2022-10-22T11:53:00.658Z,15.81
2022-10-22T11:55:35.844Z,15.92
2022-10-22T11:58:30.613Z,15.97
2022-10-22T12:01:23.399Z,16.09
2022-10-22T12:03:54.801Z,16.40
2022-10-22T12:06:25.621Z,16.22
2022-10-22T12:09:01.294Z,16.05
2022-10-22T12:11:37.554Z,16.32
2022-10-22T12:14:16.017Z,16.16
2022-10-22T12:16:57.489Z,15.98
2022-10-22T12:19:31.450Z,15.57
2022-10-22T12:22:10.214Z,15.62
2022-10-22T12:24:42.941Z,15.74
2022-10-22T12:27:22.619Z,15.92
2022-10-22T12:29:56.930Z,16.13
2022-10-22T12:32:38.412Z,16.21
2022-10-22T12:35:09.991Z,15.93
2022-10-22T12:37:39.876Z,15.87
2022-10-22T12:40:20.514Z,16.04
2022-10-22T12:42:51.679Z,16.06
2022-10-22T12:45:24.066Z,16.23
2022-10-22T12:47:59.229Z,16.30
2022-10-22T12:50:38.268Z,16.46
2022-10-22T12:53:08.271Z,16.59
2022-10-22T12:55:39.376Z,16.48
2022-10-22T12:58:09.285Z,16.31
2022-10-22T13:00:38.957Z,16.39
2022-10-22T13:03:25.068Z,16.61
2022-10-22T13:05:54.567Z,16.26
2022-10-22T13:08:29.186Z,16.33
2022-10-22T13:11:07.799Z,16.58
2022-10-22T13:13:45.703Z,16.30
2022-10-22T13:16:21.489Z,16.11
2022-10-22T13:18:52.690Z,16.18
2022-10-22T13:21:28.343Z,16.14
2022-10-22T13:23:59.883Z,16.21
2022-10-22T13:26:35.505Z,16.38
2022-10-22T13:29:11.078Z,16.62
2022-10-22T13:31:47.534Z,16.59
2022-10-22T13:34:21.560Z,16.60
2022-10-22T13:36:51.492Z,16.67
2022-10-22T13:39:21.919Z,16.60
2022-10-22T13:41:51.850Z,16.68
2022-10-22T13:44:21.533Z,16.66
2022-10-22T13:46:51.240Z,16.58
2022-10-22T13:49:24.332Z,16.49
2022-10-22T13:51:57.086Z,16.66
2022-10-22T13:54:29.137Z,16.64
2022-10-22T13:56:58.813Z,16.55
2022-10-22T13:59:28.065Z,16.66
2022-10-22T14:01:57.824Z,16.55
2022-10-22T14:04:28.698Z,16.65
2022-10-22T14:07:00.007Z,16.45
2022-10-22T14:09:32.127Z,16.38
2022-10-22T14:12:01.687Z,16.39
2022-10-22T14:14:31.027Z,16.46
2022-10-22T14:17:00.473Z,16.46
2022-10-22T14:19:32.681Z,16.41
2022-10-22T14:22:05.189Z,16.45
2022-10-22T14:24:34.442Z,16.45
2022-10-22T14:27:03.892Z,16.48
2022-10-22T14:29:33.177Z,16.47
2022-10-22T14:32:02.696Z,16.26
2022-10-22T14:34:33.443Z,16.26
2022-10-22T14:37:03.600Z,16.26
2022-10-22T14:39:32.907Z,16.25
2022-10-22T14:42:02.516Z,16.34
2022-10-22T14:44:32.069Z,16.37
2022-10-22T14:47:01.797Z,16.32
2022-10-22T14:49:32.448Z,16.20
2022-10-22T14:52:02.246Z,16.12
2022-10-22T14:54:35.377Z,16.01
2022-10-22T14:57:04.988Z,16.08
2022-10-22T14:59:34.327Z,16.24
2022-10-22T15:02:03.973Z,16.16
2022-10-22T15:04:34.719Z,16.24
2022-10-22T15:07:04.594Z,15.97
2022-10-22T15:09:34.067Z,16.01
2022-10-22T15:12:03.903Z,16.16
2022-10-22T15:14:33.259Z,16.25
2022-10-22T15:17:02.814Z,15.97
2022-10-22T15:19:33.489Z,16.11
2022-10-22T15:22:03.018Z,16.22
2022-10-22T15:24:32.407Z,16.24
2022-10-22T15:27:03.381Z,16.30
2022-10-22T15:29:33.251Z,16.33
2022-10-22T15:32:08.924Z,16.17
2022-10-22T15:34:40.929Z,16.20
2022-10-22T15:37:12.115Z,16.19
2022-10-22T15:39:42.314Z,16.15
2022-10-22T15:42:16.078Z,16.20
2022-10-22T15:44:45.681Z,16.11
2022-10-22T15:47:15.329Z,16.20
2022-10-22T15:49:46.242Z,16.15
2022-10-22T15:52:16.211Z,16.27
2022-10-22T15:54:45.510Z,16.23
2022-10-22T15:57:15.675Z,16.22
2022-10-22T15:59:50.184Z,16.08
2022-10-22T16:02:22.536Z,16.11
2022-10-22T16:04:53.450Z,16.16
2022-10-22T16:07:24.761Z,16.09
2022-10-22T16:09:58.785Z,16.10
2022-10-22T16:12:28.332Z,16.38
2022-10-22T16:14:57.810Z,16.28
2022-10-22T16:17:27.369Z,16.20
2022-10-22T16:19:58.089Z,16.32
2022-10-22T16:22:27.828Z,16.18
2022-10-22T16:24:57.289Z,16.25
2022-10-22T16:27:29.455Z,16.25
2022-10-22T16:29:58.749Z,16.23
2022-10-22T16:32:28.495Z,16.24
2022-10-22T16:34:59.396Z,16.22
2022-10-22T16:37:29.346Z,16.24
2022-10-22T16:39:58.628Z,16.14
2022-10-22T16:42:28.432Z,16.30
2022-10-22T16:44:57.914Z,16.23
2022-10-22T16:47:27.669Z,16.26
2022-10-22T16:50:00.948Z,16.29
2022-10-22T16:52:30.806Z,16.11
2022-10-22T16:55:01.298Z,16.17
2022-10-22T16:57:32.457Z,16.27
2022-10-22T17:00:01.964Z,16.09
2022-10-22T17:02:31.746Z,16.25
2022-10-22T17:05:02.577Z,16.21
2022-10-22T17:07:32.126Z,16.27
2022-10-22T17:10:03.645Z,16.19
2022-10-22T17:12:35.523Z,16.24
2022-10-22T17:15:05.541Z,16.10
2022-10-22T17:17:35.734Z,15.88
2022-10-22T17:20:07.822Z,16.13
2022-10-22T17:22:37.506Z,16.25
2022-10-22T17:25:16.358Z,16.35
2022-10-22T17:27:53.945Z,16.17
2022-10-22T17:30:27.236Z,16.38
2022-10-22T17:32:56.961Z,16.32
2022-10-22T17:38:02.160Z,16.22
2022-10-22T17:40:31.417Z,16.18
2022-10-22T17:43:00.905Z,16.42
2022-10-22T17:45:30.199Z,16.56
2022-10-22T17:47:59.601Z,16.31
2022-10-22T17:50:30.207Z,16.42
2022-10-22T17:52:59.729Z,16.45
2022-10-22T17:55:29.514Z,16.50
2022-10-22T17:57:59.058Z,16.61
2022-10-22T18:00:29.520Z,16.47
2022-10-22T18:02:59.867Z,16.33
2022-10-22T18:05:30.589Z,16.40
2022-10-22T18:08:03.185Z,16.44
2022-10-22T18:10:34.739Z,16.36
2022-10-22T18:13:04.251Z,16.37
2022-10-22T18:15:34.052Z,16.07
2022-10-22T18:18:03.551Z,16.26
2022-10-22T18:20:34.258Z,16.27
2022-10-22T18:23:04.608Z,16.43
2022-10-22T18:28:08.174Z,16.54
2022-10-22T18:30:40.929Z,16.62
2022-10-22T18:33:12.188Z,16.40
2022-10-22T18:35:42.902Z,16.37
2022-10-22T18:38:12.650Z,16.43
2022-10-22T18:40:46.705Z,16.11
2022-10-22T18:43:19.998Z,16.41
2022-10-22T18:45:50.128Z,16.26
2022-10-22T18:48:22.947Z,16.31
2022-10-22T18:51:02.076Z,16.41
2022-10-22T18:53:31.644Z,16.44
2022-10-22T18:56:00.955Z,16.42
2022-10-22T18:58:30.385Z,15.99
2022-10-22T19:00:59.816Z,16.26
2022-10-22T19:03:29.202Z,16.15
2022-10-22T19:06:00.272Z,16.21
2022-10-22T19:08:29.940Z,16.15
2022-10-22T19:10:59.248Z,16.45
2022-10-22T19:13:28.899Z,16.26
2022-10-22T19:16:04.083Z,16.26
2022-10-22T19:18:34.075Z,16.38
2022-10-22T19:21:05.228Z,16.31
2022-10-22T19:23:34.830Z,16.31
2022-10-22T19:26:05.855Z,16.49
2022-10-22T19:28:35.578Z,16.52
2022-10-22T19:31:07.219Z,16.41
2022-10-22T19:33:37.668Z,16.19
2022-10-22T19:36:10.300Z,16.26
2022-10-22T19:38:42.143Z,16.48
2022-10-22T19:41:13.262Z,16.36
2022-10-22T19:43:43.381Z,16.25
2022-10-22T19:46:13.420Z,16.35
2022-10-22T19:48:43.135Z,16.44
2022-10-22T19:51:21.165Z,16.61
2022-10-22T19:53:51.364Z,16.34
2022-10-22T19:56:21.811Z,16.43
2022-10-22T19:58:53.826Z,16.34
2022-10-22T20:01:23.387Z,16.54
2022-10-22T20:03:53.275Z,16.59
2022-10-22T20:06:24.098Z,16.44
2022-10-22T20:08:56.046Z,16.44
2022-10-22T20:11:27.799Z,16.50
2022-10-22T20:13:57.949Z,16.40
2022-10-22T20:16:30.044Z,16.45
2022-10-22T20:19:02.965Z,16.41
2022-10-22T20:21:34.521Z,16.54
2022-10-22T20:24:07.377Z,16.22
2022-10-22T20:26:40.186Z,16.35
2022-10-22T20:29:11.399Z,16.39
2022-10-22T20:31:41.866Z,16.45
2022-10-22T20:34:11.470Z,16.43
2022-10-22T20:36:42.258Z,16.59
2022-10-22T20:39:15.925Z,16.61
2022-10-22T20:41:45.274Z,16.51
2022-10-22T20:44:17.871Z,16.30
2022-10-22T20:46:49.459Z,16.36
2022-10-22T20:49:20.966Z,16.51
2022-10-22T20:51:51.924Z,16.41
2022-10-22T20:54:21.451Z,16.31
2022-10-22T20:56:50.950Z,16.51
2022-10-22T20:59:20.644Z,16.44
2022-10-22T21:01:51.398Z,16.45
2022-10-22T21:04:22.507Z,16.57
2022-10-22T21:06:53.871Z,16.62
2022-10-22T21:09:23.450Z,16.66
2022-10-22T21:14:28.591Z,16.27
2022-10-22T21:16:59.275Z,16.28
2022-10-22T21:19:29.268Z,16.38
2022-10-22T21:22:00.124Z,16.43
2022-10-22T21:24:29.581Z,16.17
2022-10-22T21:26:59.033Z,16.04
2022-10-22T21:29:28.702Z,16.19
2022-10-22T21:31:58.096Z,16.15
2022-10-22T21:34:28.453Z,16.16
2022-10-22T21:36:59.088Z,15.99
2022-10-22T21:39:28.776Z,16.08
2022-10-22T21:41:57.980Z,16.21
2022-10-22T21:44:27.668Z,16.03
2022-10-22T21:46:57.395Z,15.98
2022-10-22T21:49:26.950Z,16.14
2022-10-22T21:51:56.169Z,16.06
2022-10-22T21:54:27.327Z,16.18
2022-10-22T21:56:56.675Z,16.08
2022-10-22T21:59:26.263Z,16.24
2022-10-22T22:01:56.660Z,16.50
2022-10-22T22:04:26.278Z,16.28
2022-10-22T22:06:55.706Z,16.01
2022-10-22T22:09:26.723Z,16.04
2022-10-22T22:11:56.035Z,16.06
2022-10-22T22:14:25.477Z,16.14
2022-10-22T22:16:54.755Z,16.08
2022-10-22T22:19:24.149Z,16.17
2022-10-22T22:21:53.620Z,16.19
2022-10-22T22:24:23.131Z,16.14
2022-10-22T22:26:53.760Z,16.16
2022-10-22T22:29:23.169Z,16.22
2022-10-22T22:31:52.465Z,16.13
2022-10-22T22:34:21.960Z,16.04
2022-10-22T22:36:51.306Z,15.91
2022-10-22T22:39:22.931Z,16.07
2022-10-22T22:41:53.598Z,16.13
2022-10-22T22:44:23.119Z,16.14
2022-10-22T22:46:52.699Z,16.09
2022-10-22T22:49:22.123Z,15.96
2022-10-22T22:51:51.488Z,16.11
2022-10-22T22:54:21.071Z,16.16
2022-10-22T22:56:53.176Z,16.22
2022-10-22T22:59:22.650Z,16.20
2022-10-22T23:01:52.272Z,16.13
2022-10-22T23:04:23.914Z,16.20
2022-10-22T23:06:53.938Z,16.08
2022-10-22T23:09:23.634Z,15.99
2022-10-22T23:11:54.404Z,15.90
2022-10-22T23:14:23.795Z,16.01
2022-10-22T23:16:54.184Z,15.93
2022-10-22T23:19:24.540Z,16.11
2022-10-22T23:21:55.769Z,16.06
2022-10-22T23:24:28.015Z,16.14
2022-10-22T23:27:01.544Z,16.15
2022-10-22T23:29:33.128Z,15.96
2022-10-22T23:32:03.496Z,15.99
2022-10-22T23:34:33.951Z,16.10
2022-10-22T23:37:03.305Z,16.04
2022-10-22T23:39:33.057Z,16.10
2022-10-22T23:42:03.990Z,16.21
2022-10-22T23:44:33.696Z,16.19
2022-10-22T23:47:03.149Z,16.27
2022-10-22T23:49:33.110Z,16.20
2022-10-22T23:52:02.511Z,16.14
2022-10-22T23:54:32.183Z,16.25
2022-10-22T23:57:02.925Z,16.15
2022-10-22T23:59:32.568Z,16.26
